Time;durP1;ratioP1;P1;durP2;ratioP2;P2;SDS_P1;SDS_P2;PMS_P1;PMS_P2;Temp;Humidity;BMP_temperature;BMP_pressure;BME280_temperature;BME280_humidity;BME280_pressure;Samples;Min_cycle;Max_cycle;Signal;HPM_P1;HPM_P2
2023/10/01 00:00:37;;;;;;;6.43;4.90;;;21.20;55.40;;;;;;4979946;28;20695;-77
2023/10/01 00:03:05;;;;;;;7.10;5.10;;;21.20;55.40;;;;;;4979982;28;20211;-77
2023/10/01 00:05:32;;;;;;;7.82;5.20;;;21.20;55.40;;;;;;4980122;28;20197;-77
2023/10/01 00:07:59;;;;;;;5.95;4.47;;;21.20;55.40;;;;;;4997280;28;20280;-77
2023/10/01 00:10:28;;;;;;;7.00;4.75;;;21.20;55.50;;;;;;4963661;28;20679;-77
2023/10/01 00:12:58;;;;;;;6.65;5.05;;;21.20;55.50;;;;;;4979838;28;20209;-77
2023/10/01 00:15:26;;;;;;;7.38;4.88;;;21.20;55.50;;;;;;4979838;28;20253;-77
2023/10/01 00:17:53;;;;;;;7.85;5.07;;;21.20;55.50;;;;;;4979853;28;20201;-77
2023/10/01 00:20:23;;;;;;;5.82;4.50;;;21.20;55.50;;;;;;4979855;28;20766;-77
2023/10/01 00:22:50;;;;;;;8.70;5.45;;;21.10;55.50;;;;;;4980103;28;20739;-77
2023/10/01 00:25:18;;;;;;;6.63;4.80;;;21.10;55.40;;;;;;4980657;28;20197;-77
2023/10/01 00:27:46;;;;;;;7.03;4.95;;;21.10;55.40;;;;;;4980323;28;20201;-77
2023/10/01 00:30:14;;;;;;;6.43;4.55;;;21.10;55.40;;;;;;4964562;28;20268;-77
2023/10/01 00:32:41;;;;;;;6.50;4.90;;;21.10;55.50;;;;;;4963954;28;20208;-77
2023/10/01 00:35:11;;;;;;;7.45;4.85;;;21.10;55.60;;;;;;4979661;28;20221;-77
2023/10/01 00:37:38;;;;;;;6.50;5.20;;;21.10;55.60;;;;;;4979793;28;20248;-77
2023/10/01 00:40:08;;;;;;;6.28;4.65;;;21.10;55.70;;;;;;4979151;28;20348;-77
2023/10/01 00:42:36;;;;;;;6.50;4.78;;;21.10;55.80;;;;;;4964779;28;20646;-77
2023/10/01 00:45:07;;;;;;;6.43;4.93;;;21.10;55.80;;;;;;4996905;28;20190;-77
2023/10/01 00:47:34;;;;;;;6.78;4.85;;;21.00;55.80;;;;;;4979151;28;20204;-77
2023/10/01 00:50:01;;;;;;;7.00;4.70;;;21.00;55.80;;;;;;4979196;28;20221;-77
2023/10/01 00:52:28;;;;;;;6.65;4.50;;;21.10;55.90;;;;;;4979171;28;20197;-77
2023/10/01 00:54:56;;;;;;;5.90;4.30;;;21.00;55.80;;;;;;4963134;28;20243;-77
2023/10/01 00:57:23;;;;;;;7.13;4.90;;;21.00;55.90;;;;;;4979000;28;20193;-77
2023/10/01 00:59:50;;;;;;;6.13;4.57;;;21.00;55.90;;;;;;4978973;28;20243;-77
2023/10/01 01:02:19;;;;;;;6.97;4.57;;;21.00;56.00;;;;;;4978956;28;20234;-77
2023/10/01 01:05:05;;;;;;;6.80;4.82;;;21.00;56.00;;;;;;4978942;28;20220;-77
2023/10/01 01:07:36;;;;;;;7.53;4.90;;;21.00;56.00;;;;;;4979006;28;20197;-77
2023/10/01 01:10:04;;;;;;;6.25;4.78;;;21.00;56.10;;;;;;4978739;28;20599;-77
2023/10/01 01:12:32;;;;;;;5.63;4.47;;;21.00;56.00;;;;;;4978757;28;20196;-77
2023/10/01 01:14:59;;;;;;;7.28;5.15;;;20.90;56.00;;;;;;4963081;28;20308;-77
2023/10/01 01:17:27;;;;;;;6.88;4.63;;;21.00;56.10;;;;;;4978745;28;20235;-77
2023/10/01 01:19:55;;;;;;;6.03;5.03;;;20.90;56.00;;;;;;4979130;28;20243;-77
2023/10/01 01:22:29;;;;;;;5.53;4.40;;;20.90;56.00;;;;;;4978722;28;20235;-77
2023/10/01 01:24:57;;;;;;;5.70;4.50;;;21.00;56.20;;;;;;4978712;28;20715;-77
2023/10/01 01:27:24;;;;;;;6.70;4.55;;;20.90;56.10;;;;;;4978875;28;20201;-77
2023/10/01 01:29:52;;;;;;;6.60;4.50;;;20.90;56.10;;;;;;4979057;28;20237;-77
2023/10/01 01:32:19;;;;;;;6.55;4.63;;;20.90;56.20;;;;;;4978211;28;20198;-77
2023/10/01 01:34:46;;;;;;;5.25;4.20;;;20.90;56.20;;;;;;4994243;28;20754;-77
2023/10/01 01:37:30;;;;;;;7.13;4.82;;;20.90;56.20;;;;;;4978788;28;20205;-77
2023/10/01 01:39:59;;;;;;;5.82;4.32;;;20.90;56.20;;;;;;4995830;28;20229;-78
2023/10/01 01:42:27;;;;;;;6.15;4.90;;;20.90;56.20;;;;;;4986792;28;20194;-77
2023/10/01 01:47:36;;;;;;;6.95;4.78;;;20.90;56.20;;;;;;4977970;28;20229;-76
2023/10/01 01:50:17;;;;;;;5.93;4.38;;;20.90;56.20;;;;;;4978094;28;20229;-76
2023/10/01 01:52:47;;;;;;;6.50;4.72;;;20.90;56.20;;;;;;4978505;28;20200;-77
2023/10/01 01:55:31;;;;;;;8.77;4.65;;;20.80;56.20;;;;;;4979131;28;20217;-77
2023/10/01 01:58:08;;;;;;;6.32;4.45;;;20.80;56.20;;;;;;4976547;28;20544;-77
2023/10/01 02:00:37;;;;;;;6.65;4.65;;;20.80;56.20;;;;;;4977906;28;20287;-76
2023/10/01 02:03:14;;;;;;;6.75;4.95;;;20.80;56.20;;;;;;4977732;28;20197;-76
2023/10/01 02:05:42;;;;;;;7.25;5.20;;;20.80;56.20;;;;;;4977806;28;20193;-76
2023/10/01 02:08:11;;;;;;;6.03;4.50;;;20.80;56.20;;;;;;4977626;28;20201;-76
2023/10/01 02:10:45;;;;;;;5.80;4.63;;;20.80;56.20;;;;;;4977982;28;20723;-76
2023/10/01 02:13:17;;;;;;;5.80;4.53;;;20.80;56.20;;;;;;4977766;28;20647;-76
2023/10/01 02:15:46;;;;;;;6.15;4.57;;;20.80;56.30;;;;;;4961735;28;20209;-75
2023/10/01 02:18:16;;;;;;;5.30;4.35;;;20.80;56.30;;;;;;4978056;28;20558;-75
2023/10/01 02:20:51;;;;;;;5.90;4.45;;;20.70;56.20;;;;;;4977839;28;20227;-75
2023/10/01 02:23:25;;;;;;;6.72;4.55;;;20.80;56.30;;;;;;4977683;28;20229;-75
2023/10/01 02:25:57;;;;;;;6.97;4.82;;;20.80;56.30;;;;;;4977542;28;20718;-75
2023/10/01 02:28:26;;;;;;;6.47;4.78;;;20.80;56.30;;;;;;4977756;28;20206;-75
2023/10/01 02:30:57;;;;;;;5.82;4.53;;;20.70;56.20;;;;;;4977520;28;20307;-75
2023/10/01 02:33:25;;;;;;;5.68;4.43;;;20.80;56.30;;;;;;4977682;28;20225;-75
2023/10/01 02:35:55;;;;;;;6.50;5.05;;;20.70;56.20;;;;;;4977699;28;20233;-75
2023/10/01 02:38:39;;;;;;;5.85;4.60;;;20.80;56.30;;;;;;4996059;28;20221;-75
2023/10/01 02:41:09;;;;;;;6.07;4.78;;;20.80;56.30;;;;;;4977612;28;20239;-75
2023/10/01 02:43:41;;;;;;;6.22;4.53;;;20.70;56.20;;;;;;4977403;28;20201;-75
2023/10/01 02:46:09;;;;;;;5.97;4.35;;;20.70;56.20;;;;;;4976918;28;20594;-75
2023/10/01 02:48:36;;;;;;;5.75;4.45;;;20.70;56.20;;;;;;4977275;28;20213;-75
2023/10/01 02:51:15;;;;;;;5.45;4.30;;;20.70;56.30;;;;;;4961422;28;20220;-75
2023/10/01 02:53:42;;;;;;;6.43;4.70;;;20.70;56.30;;;;;;4976939;28;20181;-75
2023/10/01 02:56:16;;;;;;;6.80;4.88;;;20.70;56.30;;;;;;4976943;28;20221;-75
2023/10/01 02:58:49;;;;;;;6.53;5.22;;;20.60;56.20;;;;;;4977201;28;20288;-75
2023/10/01 03:01:17;;;;;;;6.47;4.80;;;20.70;56.30;;;;;;4977523;28;20730;-75
2023/10/01 03:03:43;;;;;;;6.30;4.63;;;20.70;56.30;;;;;;4976941;28;20197;-75
2023/10/01 03:06:11;;;;;;;6.50;4.75;;;20.70;56.20;;;;;;4960989;28;20648;-75
2023/10/01 03:08:59;;;;;;;6.30;4.50;;;20.70;56.30;;;;;;4977173;28;20193;-75
2023/10/01 03:11:40;;;;;;;7.28;4.57;;;20.60;56.10;;;;;;4976963;28;20281;-75
2023/10/01 03:14:20;;;;;;;6.18;4.85;;;20.60;56.00;;;;;;4977888;28;20197;-75
2023/10/01 03:16:53;;;;;;;6.88;5.00;;;20.60;56.00;;;;;;4978244;28;20243;-75
2023/10/01 03:19:25;;;;;;;6.80;5.15;;;20.70;56.00;;;;;;4977223;28;20225;-75
2023/10/01 03:24:42;;;;;;;7.03;4.70;;;20.70;56.00;;;;;;4973169;28;20193;-75
2023/10/01 03:27:25;;;;;;;5.90;4.60;;;20.70;56.00;;;;;;4976677;28;20194;-75
2023/10/01 03:30:00;;;;;;;5.97;4.60;;;20.80;56.00;;;;;;4976982;28;20221;-75
2023/10/01 03:32:32;;;;;;;5.90;4.60;;;20.80;55.80;;;;;;4976980;28;20220;-75
2023/10/01 03:35:05;;;;;;;6.20;4.78;;;20.90;55.60;;;;;;4977024;28;20634;-75
2023/10/01 03:37:38;;;;;;;5.55;4.47;;;21.00;55.40;;;;;;4976728;28;20197;-75
2023/10/01 03:40:10;;;;;;;5.70;4.57;;;21.00;55.40;;;;;;4976766;28;20225;-75
2023/10/01 03:42:39;;;;;;;5.90;4.75;;;21.10;55.40;;;;;;4961148;28;20229;-75
2023/10/01 03:45:37;;;;;;;6.38;4.75;;;21.10;55.10;;;;;;4976694;28;20194;-75
2023/10/01 03:48:07;;;;;;;7.53;5.32;;;21.20;55.10;;;;;;5018226;23;20414;-76
2023/10/01 03:50:45;;;;;;;5.65;4.75;;;21.20;54.90;;;;;;4992783;28;20285;-76
2023/10/01 03:53:13;;;;;;;6.95;4.95;;;21.20;54.70;;;;;;4992770;28;20193;-76
2023/10/01 03:55:43;;;;;;;5.82;4.63;;;21.30;54.70;;;;;;4993002;28;20218;-76
2023/10/01 03:58:19;;;;;;;5.78;4.55;;;21.30;54.60;;;;;;4996560;28;20208;-76
2023/10/01 04:00:53;;;;;;;6.60;5.07;;;21.30;54.50;;;;;;4996825;28;20229;-76
2023/10/01 04:03:22;;;;;;;5.97;4.97;;;21.30;54.50;;;;;;4996241;28;20251;-76
2023/10/01 04:05:56;;;;;;;5.88;4.50;;;21.30;54.40;;;;;;4996192;28;20202;-76
2023/10/01 04:08:23;;;;;;;6.47;5.00;;;21.40;54.30;;;;;;4996525;28;20193;-76
2023/10/01 04:10:58;;;;;;;6.95;4.47;;;21.40;54.30;;;;;;4996116;28;20232;-76
2023/10/01 04:13:28;;;;;;;6.22;4.47;;;21.40;54.30;;;;;;4996300;28;20663;-76
2023/10/01 04:15:57;;;;;;;5.80;4.65;;;21.40;54.30;;;;;;4996039;28;20256;-76
2023/10/01 04:18:28;;;;;;;5.90;4.63;;;21.40;54.30;;;;;;4995989;28;20580;-76
2023/10/01 04:23:47;;;;;;;6.47;4.90;;;21.30;54.30;;;;;;4996242;28;20610;-76
2023/10/01 04:26:16;;;;;;;5.43;4.40;;;21.30;54.40;;;;;;4997807;28;20178;-76
2023/10/01 04:28:46;;;;;;;6.72;4.65;;;21.30;54.50;;;;;;4996185;28;20296;-76
2023/10/01 04:31:15;;;;;;;6.68;4.82;;;21.20;54.50;;;;;;5006360;28;20186;-76
2023/10/01 04:33:43;;;;;;;6.93;4.22;;;21.20;54.50;;;;;;4996542;28;20233;-76
2023/10/01 04:36:11;;;;;;;6.53;4.97;;;21.20;54.70;;;;;;4995825;28;20213;-76
2023/10/01 04:38:39;;;;;;;6.47;4.90;;;21.10;54.60;;;;;;4996171;28;20703;-76
2023/10/01 04:41:07;;;;;;;7.35;5.00;;;21.10;54.70;;;;;;4996336;28;20217;-76
2023/10/01 04:43:35;;;;;;;5.60;4.65;;;21.10;54.70;;;;;;4996350;28;20256;-76
2023/10/01 04:46:08;;;;;;;6.05;4.85;;;21.10;54.80;;;;;;4996196;28;20232;-76
2023/10/01 04:48:36;;;;;;;5.63;4.68;;;21.10;54.80;;;;;;4995674;28;20215;-76
2023/10/01 04:51:07;;;;;;;6.22;4.72;;;21.10;54.90;;;;;;4995361;28;20228;-76
2023/10/01 04:53:34;;;;;;;6.30;4.70;;;21.00;54.90;;;;;;4979764;28;20194;-76
2023/10/01 04:56:07;;;;;;;6.20;4.78;;;21.00;54.90;;;;;;4995165;28;20221;-76
2023/10/01 04:58:37;;;;;;;7.00;5.03;;;21.00;55.00;;;;;;4995280;28;20220;-76
2023/10/01 05:01:06;;;;;;;6.45;4.38;;;20.90;54.90;;;;;;4995997;28;20221;-76
2023/10/01 05:03:39;;;;;;;7.13;5.05;;;20.90;54.90;;;;;;4995369;28;20716;-76
2023/10/01 05:06:09;;;;;;;6.13;4.72;;;20.90;55.10;;;;;;4995390;28;20194;-76
2023/10/01 05:08:42;;;;;;;5.88;4.57;;;21.00;55.20;;;;;;4994062;28;20661;-76
2023/10/01 05:11:11;;;;;;;5.97;5.13;;;20.90;55.00;;;;;;4996164;28;20272;-76
2023/10/01 05:13:40;;;;;;;5.45;4.65;;;20.90;55.00;;;;;;4995011;28;20206;-76
2023/10/01 05:16:12;;;;;;;7.15;4.90;;;20.90;54.90;;;;;;4994941;28;20652;-76
2023/10/01 05:18:39;;;;;;;5.88;4.47;;;20.80;54.90;;;;;;4995060;28;20197;-76
2023/10/01 05:21:12;;;;;;;5.18;4.50;;;20.90;55.10;;;;;;4994653;28;20225;-76
2023/10/01 05:23:39;;;;;;;6.38;4.82;;;20.90;55.20;;;;;;4994859;28;20198;-76
2023/10/01 05:26:05;;;;;;;7.38;4.90;;;20.90;55.20;;;;;;4995096;28;20240;-75
2023/10/01 05:28:34;;;;;;;6.18;4.82;;;20.90;55.20;;;;;;4994954;28;20201;-76
2023/10/01 05:31:05;;;;;;;5.72;4.63;;;20.80;55.10;;;;;;4994489;28;20221;-76
2023/10/01 05:33:34;;;;;;;5.60;4.22;;;20.80;55.20;;;;;;4995147;28;20202;-76
2023/10/01 05:36:04;;;;;;;6.30;4.60;;;20.80;55.20;;;;;;4978528;28;20221;-76
2023/10/01 05:38:33;;;;;;;5.30;4.07;;;20.80;55.20;;;;;;4997424;28;20376;-76
2023/10/01 05:41:03;;;;;;;5.82;4.50;;;20.80;55.20;;;;;;5002681;28;20225;-75
2023/10/01 05:43:35;;;;;;;6.13;4.60;;;20.80;55.20;;;;;;4994664;28;20205;-75
2023/10/01 05:46:08;;;;;;;5.35;4.30;;;20.80;55.20;;;;;;4994667;28;20190;-75
2023/10/01 05:48:37;;;;;;;4.95;4.05;;;20.80;55.20;;;;;;4994345;28;20205;-76
2023/10/01 05:51:06;;;;;;;5.32;4.70;;;20.70;55.10;;;;;;4994358;28;20220;-76
2023/10/01 05:53:33;;;;;;;6.07;4.82;;;20.70;55.10;;;;;;4995490;28;20193;-76
2023/10/01 05:56:07;;;;;;;5.80;4.63;;;20.80;55.20;;;;;;4994025;28;20221;-76
2023/10/01 05:58:34;;;;;;;5.82;4.45;;;20.70;55.10;;;;;;4994251;28;20649;-76
2023/10/01 06:01:13;;;;;;;6.05;4.60;;;20.80;55.20;;;;;;4994141;28;20267;-76
2023/10/01 06:03:42;;;;;;;6.03;4.55;;;20.70;55.10;;;;;;4994084;28;20663;-76
2023/10/01 06:06:10;;;;;;;4.95;4.05;;;20.80;55.20;;;;;;4994582;28;20206;-76
2023/10/01 06:08:49;;;;;;;7.05;4.50;;;20.70;55.10;;;;;;4993941;28;20205;-75
2023/10/01 06:11:17;;;;;;;5.38;4.22;;;20.70;55.20;;;;;;4994584;28;20204;-76
2023/10/01 06:13:49;;;;;;;5.88;4.40;;;20.80;55.20;;;;;;4994152;28;20251;-76
2023/10/01 06:16:22;;;;;;;5.50;4.60;;;20.80;55.20;;;;;;4994732;28;20249;-76
2023/10/01 06:18:51;;;;;;;5.13;4.50;;;20.80;55.20;;;;;;4994562;28;20619;-75
2023/10/01 06:21:19;;;;;;;5.28;4.43;;;20.80;55.20;;;;;;4999572;28;20296;-75
2023/10/01 06:23:52;;;;;;;6.70;4.63;;;20.80;55.20;;;;;;4995846;28;20205;-75
2023/10/01 06:26:20;;;;;;;5.80;4.45;;;20.80;55.10;;;;;;4994536;28;20575;-76
2023/10/01 06:28:47;;;;;;;5.28;4.63;;;20.80;55.00;;;;;;4994086;28;20205;-76
2023/10/01 06:31:16;;;;;;;4.82;4.30;;;20.80;54.90;;;;;;4993852;28;20240;-76
2023/10/01 06:33:45;;;;;;;5.07;4.25;;;20.90;55.00;;;;;;4993694;28;20580;-75
2023/10/01 06:36:16;;;;;;;6.50;4.57;;;20.90;55.00;;;;;;4994036;28;20609;-75
2023/10/01 06:38:44;;;;;;;5.70;4.68;;;20.90;54.90;;;;;;4993691;28;20189;-75
2023/10/01 06:41:16;;;;;;;6.15;4.72;;;20.90;54.90;;;;;;4993509;28;20240;-75
2023/10/01 06:43:49;;;;;;;5.38;4.32;;;20.80;54.90;;;;;;4994295;28;20198;-76
2023/10/01 06:46:22;;;;;;;5.50;4.15;;;20.90;54.90;;;;;;4994330;28;20186;-76
2023/10/01 06:48:49;;;;;;;5.60;4.28;;;20.90;54.90;;;;;;5010449;28;20243;-76
2023/10/01 06:51:21;;;;;;;6.20;4.65;;;20.90;54.90;;;;;;5005800;28;20197;-76
2023/10/01 06:53:53;;;;;;;5.43;4.32;;;20.90;54.80;;;;;;4998319;28;20198;-76
2023/10/01 06:56:21;;;;;;;5.75;4.40;;;20.90;54.70;;;;;;5003335;28;20214;-76
2023/10/01 06:59:12;;;;;;;5.40;4.25;;;21.00;54.70;;;;;;4993979;28;20207;-75
2023/10/01 07:01:42;;;;;;;5.57;4.38;;;21.00;54.60;;;;;;4993411;28;20213;-75
2023/10/01 07:04:09;;;;;;;5.55;4.50;;;21.00;54.70;;;;;;4993475;28;20197;-75
2023/10/01 07:06:38;;;;;;;5.80;4.63;;;21.00;54.50;;;;;;4993209;28;20271;-76
2023/10/01 07:09:06;;;;;;;4.78;4.22;;;21.00;54.30;;;;;;4993072;28;20264;-75
2023/10/01 07:11:33;;;;;;;5.28;4.38;;;21.00;54.30;;;;;;4993171;28;20228;-76
2023/10/01 07:14:02;;;;;;;6.70;5.20;;;21.00;54.10;;;;;;4994948;28;20260;-76
2023/10/01 07:16:39;;;;;;;8.75;5.10;;;21.10;53.90;;;;;;4993902;28;20225;-75
2023/10/01 07:19:11;;;;;;;6.45;4.72;;;21.10;53.90;;;;;;4993063;28;20779;-75
2023/10/01 07:21:41;;;;;;;7.47;4.90;;;21.10;53.70;;;;;;4993469;28;20189;-76
2023/10/01 07:24:10;;;;;;;5.28;4.57;;;21.00;53.50;;;;;;4993135;28;20716;-76
2023/10/01 07:26:40;;;;;;;6.75;4.78;;;21.10;53.80;;;;;;4992974;28;20193;-76
2023/10/01 07:29:07;;;;;;;5.82;4.63;;;21.10;53.70;;;;;;4992760;28;20309;-76
2023/10/01 07:31:35;;;;;;;6.53;5.25;;;21.20;53.90;;;;;;4995904;28;20659;-76
2023/10/01 07:34:12;;;;;;;6.03;4.40;;;21.30;53.90;;;;;;4996809;28;20228;-76
2023/10/01 07:36:43;;;;;;;5.97;4.50;;;21.40;53.90;;;;;;4996713;28;20631;-76
2023/10/01 07:39:13;;;;;;;6.93;5.15;;;21.60;53.40;;;;;;4996614;28;20300;-76
2023/10/01 07:41:44;;;;;;;6.28;4.80;;;21.70;53.00;;;;;;4996979;28;20205;-76
2023/10/01 07:44:12;;;;;;;5.95;4.47;;;22.00;52.60;;;;;;4996602;28;20194;-76
2023/10/01 07:46:39;;;;;;;6.00;5.05;;;22.20;52.30;;;;;;4996499;28;20197;-76
2023/10/01 07:49:08;;;;;;;7.10;5.18;;;22.40;51.90;;;;;;4996241;28;20216;-76
2023/10/01 07:51:38;;;;;;;7.05;5.10;;;22.50;52.20;;;;;;4996799;28;20209;-76
2023/10/01 07:54:10;;;;;;;6.55;4.85;;;22.60;51.20;;;;;;4996342;28;20683;-76
2023/10/01 07:56:39;;;;;;;7.90;5.15;;;22.80;51.00;;;;;;4996220;28;20333;-76
2023/10/01 07:59:28;;;;;;;6.55;4.72;;;22.90;50.70;;;;;;4996314;28;20225;-76
2023/10/01 08:02:13;;;;;;;6.85;4.68;;;23.00;50.40;;;;;;4996169;28;20186;-76
2023/10/01 08:04:57;;;;;;;5.85;4.32;;;23.10;50.20;;;;;;4997785;28;20192;-76
2023/10/01 08:07:30;;;;;;;5.25;4.35;;;23.20;50.00;;;;;;4996932;28;20629;-76
2023/10/01 08:09:58;;;;;;;6.65;5.03;;;23.30;49.70;;;;;;4996527;28;20691;-76
2023/10/01 08:12:40;;;;;;;5.97;4.65;;;23.40;49.50;;;;;;4996288;28;20676;-76
2023/10/01 08:15:16;;;;;;;6.15;4.38;;;23.50;49.50;;;;;;4996437;28;20663;-76
2023/10/01 08:17:43;;;;;;;6.65;4.85;;;23.60;49.30;;;;;;4996494;28;20217;-76
2023/10/01 08:20:18;;;;;;;6.20;4.68;;;23.60;49.10;;;;;;4995927;28;20276;-76
2023/10/01 08:23:12;;;;;;;6.88;4.70;;;23.70;49.00;;;;;;4995878;28;20245;-76
2023/10/01 08:25:33;;;;;;;6.63;4.90;;;23.80;48.80;;;;;;4996275;28;20194;-76
2023/10/01 08:28:26;;;;;;;6.68;4.88;;;23.80;48.80;;;;;;4996064;28;20371;-76
2023/10/01 08:31:01;;;;;;;6.13;4.50;;;23.90;49.30;;;;;;4995786;28;20239;-76
2023/10/01 08:33:33;;;;;;;6.97;4.80;;;23.90;48.60;;;;;;4995764;28;20185;-76
2023/10/01 08:36:01;;;;;;;5.47;4.50;;;24.00;48.50;;;;;;4995642;28;20201;-76
2023/10/01 08:38:29;;;;;;;6.60;4.30;;;24.10;48.40;;;;;;4996810;28;20189;-76
2023/10/01 08:41:00;;;;;;;6.00;4.70;;;24.20;48.30;;;;;;4995702;28;20256;-76
2023/10/01 08:43:28;;;;;;;5.45;4.45;;;24.20;48.20;;;;;;4994411;28;20191;-76
2023/10/01 08:45:57;;;;;;;5.65;4.45;;;24.20;48.10;;;;;;4996709;28;20269;-76
2023/10/01 08:48:35;;;;;;;5.35;4.40;;;24.20;47.90;;;;;;4997025;28;20205;-76
2023/10/01 08:51:08;;;;;;;5.53;4.32;;;24.30;47.90;;;;;;4995454;28;20303;-76
2023/10/01 08:53:36;;;;;;;5.00;4.03;;;24.40;47.90;;;;;;4995426;28;20186;-76
2023/10/01 08:56:05;;;;;;;4.60;4.10;;;24.40;47.70;;;;;;4995474;28;20225;-76
2023/10/01 08:58:48;;;;;;;5.35;4.10;;;24.40;47.60;;;;;;4995601;28;20551;-76
2023/10/01 09:01:19;;;;;;;5.70;4.40;;;24.50;47.60;;;;;;4995698;28;20616;-76
2023/10/01 09:03:48;;;;;;;6.07;4.35;;;24.50;47.40;;;;;;4996244;28;20225;-76
2023/10/01 09:06:25;;;;;;;5.03;4.25;;;24.50;47.30;;;;;;4995915;28;20193;-76
2023/10/01 09:08:54;;;;;;;4.65;4.00;;;24.60;47.30;;;;;;4995282;28;20201;-76
2023/10/01 09:11:34;;;;;;;5.13;4.00;;;24.60;47.20;;;;;;4995366;28;20194;-76
2023/10/01 09:16:58;;;;;;;4.72;3.88;;;24.70;47.10;;;;;;5111424;27;20550;-51
2023/10/01 09:19:34;;;;;;;5.32;4.20;;;24.70;47.00;;;;;;5090870;28;20184;-51
2023/10/01 09:22:09;;;;;;;5.88;4.45;;;24.70;47.00;;;;;;5089464;28;20189;-52
2023/10/01 09:24:39;;;;;;;5.03;4.22;;;24.70;46.90;;;;;;5090960;28;20178;-52
2023/10/01 09:27:19;;;;;;;6.28;4.43;;;24.80;47.00;;;;;;5089314;28;20193;-52
2023/10/01 09:29:48;;;;;;;5.05;4.38;;;24.80;46.90;;;;;;5090510;28;20544;-51
2023/10/01 09:32:19;;;;;;;5.18;4.30;;;24.80;46.80;;;;;;5090566;28;20187;-51
2023/10/01 09:34:56;;;;;;;5.32;4.15;;;24.80;46.80;;;;;;5090650;28;20188;-52
2023/10/01 09:37:33;;;;;;;5.43;4.13;;;24.80;46.80;;;;;;5090517;28;20216;-51
2023/10/01 09:40:05;;;;;;;4.97;4.22;;;24.90;46.80;;;;;;5089196;28;20682;-51
2023/10/01 09:42:34;;;;;;;6.20;4.43;;;24.80;46.90;;;;;;5091408;28;20181;-52
2023/10/01 09:45:09;;;;;;;7.22;4.80;;;24.90;47.00;;;;;;5090930;28;20676;-52
2023/10/01 09:47:38;;;;;;;5.88;4.53;;;24.90;46.80;;;;;;5090940;28;20701;-51
2023/10/01 09:50:06;;;;;;;8.23;5.10;;;24.90;47.00;;;;;;5090405;28;20230;-51
2023/10/01 09:52:48;;;;;;;7.75;4.93;;;24.90;46.80;;;;;;5088850;28;20202;-51
2023/10/01 09:55:26;;;;;;;8.82;5.50;;;24.90;47.10;;;;;;5090377;28;20194;-52
2023/10/01 09:57:54;;;;;;;8.20;5.93;;;24.90;47.90;;;;;;5090135;28;20216;-51
2023/10/01 10:00:21;;;;;;;10.40;6.30;;;25.00;48.00;;;;;;5088758;28;20205;-52
2023/10/01 10:02:53;;;;;;;9.95;6.30;;;25.00;48.30;;;;;;5088714;28;20202;-51
2023/10/01 10:05:26;;;;;;;9.52;6.22;;;25.10;48.00;;;;;;5088705;28;20700;-51
2023/10/01 10:07:56;;;;;;;9.20;6.15;;;25.10;47.80;;;;;;5088522;28;20271;-51
2023/10/01 10:10:26;;;;;;;94.00;55.08;;;25.10;47.60;;;;;;5090126;28;20186;-51
2023/10/01 10:12:56;;;;;;;170.60;113.57;;;25.10;47.90;;;;;;5091328;28;20277;-52
2023/10/01 10:15:57;;;;;;;144.52;98.88;;;25.10;47.30;;;;;;5091755;28;20296;-52
2023/10/01 10:18:32;;;;;;;253.10;172.25;;;25.20;47.60;;;;;;5087320;28;20259;-52
2023/10/01 10:21:04;;;;;;;122.70;84.43;;;25.10;47.70;;;;;;5089696;28;20174;-51
2023/10/01 10:23:31;;;;;;;65.35;47.28;;;25.10;48.00;;;;;;5089692;28;20561;-53
2023/10/01 10:26:35;;;;;;;81.13;57.92;;;25.10;47.20;;;;;;5089495;28;20179;-52
2023/10/01 10:29:10;;;;;;;67.55;45.35;;;25.10;47.90;;;;;;5074144;28;20698;-51
2023/10/01 10:31:37;;;;;;;49.58;35.08;;;25.10;47.60;;;;;;5074765;28;20267;-51
2023/10/01 10:34:24;;;;;;;43.90;32.65;;;25.10;47.60;;;;;;5076134;28;20186;-52
2023/10/01 10:36:50;;;;;;;47.05;33.20;;;25.10;47.60;;;;;;5076147;28;20197;-52
2023/10/01 10:40:02;;;;;;;39.25;26.55;;;25.10;47.30;;;;;;5075726;28;20207;-52
2023/10/01 10:42:28;;;;;;;33.95;22.75;;;25.10;46.90;;;;;;5074488;28;20221;-52
2023/10/01 10:45:23;;;;;;;20.73;13.90;;;25.10;47.00;;;;;;5091368;28;20230;-52
2023/10/01 10:47:58;;;;;;;24.75;16.10;;;25.10;46.60;;;;;;5075784;28;20213;-52
2023/10/01 10:50:47;;;;;;;25.23;17.23;;;25.00;46.90;;;;;;5091261;28;20204;-51
2023/10/01 10:53:17;;;;;;;24.75;15.95;;;25.00;47.30;;;;;;5075867;28;20175;-52
2023/10/01 10:55:55;;;;;;;19.52;12.35;;;25.00;47.50;;;;;;5075372;28;20198;-52
2023/10/01 10:58:24;;;;;;;18.23;11.00;;;25.00;47.10;;;;;;5075275;28;20301;-52
2023/10/01 11:00:51;;;;;;;15.30;9.77;;;25.00;47.40;;;;;;5075632;28;20670;-52
2023/10/01 11:03:38;;;;;;;17.15;11.00;;;24.90;47.20;;;;;;5075393;28;20224;-53
2023/10/01 11:06:21;;;;;;;17.13;9.68;;;24.90;47.50;;;;;;5075363;28;20679;-51
2023/10/01 11:08:51;;;;;;;15.70;9.95;;;24.90;48.30;;;;;;5075524;28;20305;-52
2023/10/01 11:11:23;;;;;;;16.08;9.50;;;24.90;47.70;;;;;;5075265;28;20214;-51
2023/10/01 11:13:59;;;;;;;15.63;9.75;;;24.90;47.70;;;;;;5075643;28;20186;-52
2023/10/01 11:16:37;;;;;;;15.25;9.45;;;24.90;47.90;;;;;;5073940;28;20214;-53
2023/10/01 11:19:13;;;;;;;13.95;8.70;;;24.90;47.80;;;;;;5075183;28;20206;-52
2023/10/01 11:21:55;;;;;;;14.32;8.68;;;24.90;47.40;;;;;;5075111;28;20686;-53
2023/10/01 11:24:25;;;;;;;10.98;7.22;;;24.90;47.70;;;;;;5075207;28;20193;-53
2023/10/01 11:27:18;;;;;;;13.85;7.65;;;24.90;47.20;;;;;;5075292;28;20220;-53
2023/10/01 11:29:58;;;;;;;13.20;7.55;;;24.80;47.00;;;;;;5073576;28;20202;-53
2023/10/01 11:32:57;;;;;;;10.88;7.53;;;24.80;48.00;;;;;;5073610;28;20616;-52
2023/10/01 11:35:31;;;;;;;12.13;7.20;;;24.80;47.40;;;;;;5074814;28;20275;-53
2023/10/01 11:38:03;;;;;;;10.23;7.05;;;24.80;47.00;;;;;;5072825;28;20228;-53
2023/10/01 11:41:06;;;;;;;10.88;7.03;;;24.70;47.30;;;;;;5073089;28;20195;-53
2023/10/01 11:43:23;;;;;;;11.07;7.18;;;24.70;47.30;;;;;;5074422;28;20685;-53
2023/10/01 11:46:23;;;;;;;11.65;7.15;;;24.60;47.60;;;;;;5074169;28;20183;-53
2023/10/01 11:48:57;;;;;;;11.57;7.32;;;24.70;47.80;;;;;;5074561;28;20203;-53
2023/10/01 11:51:31;;;;;;;12.25;7.20;;;24.70;48.00;;;;;;5074896;28;20232;-53
2023/10/01 11:54:08;;;;;;;12.00;7.10;;;24.60;48.00;;;;;;5073146;28;20187;-53
2023/10/01 11:56:37;;;;;;;11.32;6.93;;;24.70;48.10;;;;;;5073554;28;20210;-53
2023/10/01 11:59:08;;;;;;;11.82;7.03;;;24.70;48.10;;;;;;5074210;28;20217;-53
2023/10/01 12:01:47;;;;;;;10.90;6.95;;;24.70;48.30;;;;;;5074589;28;20535;-52
2023/10/01 12:04:43;;;;;;;11.25;7.20;;;24.70;48.30;;;;;;5074545;28;20206;-53
2023/10/01 12:07:16;;;;;;;10.93;6.95;;;24.60;48.30;;;;;;5074591;28;20186;-52
2023/10/01 12:09:49;;;;;;;11.27;7.00;;;24.60;48.60;;;;;;5072861;28;20205;-53
2023/10/01 12:12:18;;;;;;;10.70;7.28;;;24.50;48.40;;;;;;5072554;28;20190;-52
2023/10/01 12:14:54;;;;;;;11.65;7.30;;;24.50;48.50;;;;;;5073741;28;20233;-53
2023/10/01 12:17:24;;;;;;;12.02;7.13;;;24.50;48.50;;;;;;5072451;28;20225;-53
2023/10/01 12:19:55;;;;;;;10.93;7.18;;;24.40;48.20;;;;;;5074175;28;20207;-53
2023/10/01 12:22:25;;;;;;;11.15;7.03;;;24.50;48.30;;;;;;5072848;28;20197;-53
2023/10/01 12:24:59;;;;;;;11.82;7.55;;;24.40;48.20;;;;;;5073673;28;20186;-53
2023/10/01 12:30:27;;;;;;;10.20;6.90;;;24.40;48.30;;;;;;5074067;28;20193;-53
2023/10/01 12:32:56;;;;;;;11.77;7.57;;;24.30;48.30;;;;;;5073664;28;20184;-53
2023/10/01 12:35:28;;;;;;;12.45;7.82;;;24.30;48.20;;;;;;5072393;28;20723;-53
2023/10/01 12:38:05;;;;;;;11.80;7.65;;;24.30;47.50;;;;;;5073563;28;20218;-52
2023/10/01 12:40:36;;;;;;;10.55;7.10;;;24.30;47.90;;;;;;5072257;28;20198;-53
2023/10/01 12:43:32;;;;;;;13.07;7.65;;;24.40;47.70;;;;;;5072187;28;20198;-52
2023/10/01 12:45:50;;;;;;;12.20;6.72;;;24.40;48.30;;;;;;5072092;28;20269;-53
2023/10/01 12:48:20;;;;;;;12.30;7.60;;;24.50;47.90;;;;;;5073539;28;20281;-53
2023/10/01 12:50:59;;;;;;;9.85;6.07;;;24.50;47.90;;;;;;5072012;28;20202;-53
2023/10/01 12:53:27;;;;;;;11.68;7.18;;;24.50;47.50;;;;;;5073444;28;20178;-53
2023/10/01 12:55:56;;;;;;;10.85;7.20;;;24.50;47.50;;;;;;5073330;28;20206;-52
2023/10/01 12:58:35;;;;;;;9.82;6.57;;;24.50;47.70;;;;;;5072255;28;20219;-53
2023/10/01 13:01:05;;;;;;;11.15;6.85;;;24.50;47.60;;;;;;5072098;28;20201;-53
2023/10/01 13:03:35;;;;;;;11.73;7.28;;;24.50;47.70;;;;;;5073289;28;20182;-52
2023/10/01 13:06:05;;;;;;;12.82;7.53;;;24.50;47.70;;;;;;5072076;28;20653;-52
2023/10/01 13:08:34;;;;;;;12.85;6.75;;;24.50;47.80;;;;;;5071898;28;20211;-52
2023/10/01 13:11:02;;;;;;;8.88;6.22;;;24.50;47.70;;;;;;5071999;28;20563;-52
2023/10/01 13:13:35;;;;;;;10.73;6.65;;;24.50;47.80;;;;;;5073131;28;20190;-52
2023/10/01 13:16:03;;;;;;;11.32;7.05;;;24.50;47.70;;;;;;5073104;28;20211;-52
2023/10/01 13:18:29;;;;;;;11.48;6.95;;;24.50;47.20;;;;;;5071853;28;20218;-52
2023/10/01 13:21:06;;;;;;;11.77;6.97;;;24.50;47.20;;;;;;5072883;28;20194;-53
2023/10/01 13:23:41;;;;;;;11.05;6.60;;;24.50;46.60;;;;;;5072178;28;20199;-52